Thunder radar more information blitzortung!


Rain radar more information rain snow radar


Equipment we use:

Davis VP2

Weather Display

BareMetal


Nearby METAR Reports

   
CYAZ - Tofino, BC
Updated: 10-23-2017 18:00
NOT Current
Light Rain, Overcast  
Light Rain, Overcast  
   Wind: ESE 7.4 km/h
Wind: ESE 7.4 km/h
Temperature: 12°C
Dew Point: 11°C
Humidity: 94%
Barometer: 1035.9 hPa
Clouds: Overcast
Visibility: 16 km
Cloud details: Overcast 426.7 m
CYAZ 240100Z 11004KT 10SM -RA OVC014 12/11 A3059 RMK SC8 LAST OB/NEXT 241300 UTC SLP360
CYHE - Hope,BC
Updated: 10-24-2017 00:16
Mist, Few Clouds  
Mist, Few Clouds  
   Wind: ESE 14.8 km/h
Wind: ESE 14.8 km/h
Temperature: 7°C
Wind Chill: 4°C
Dew Point: 6°C
Humidity: 93%
Barometer: 1039.3 hPa
Clouds: Few Clouds
Visibility: 6 km
Cloud details: Few Clouds 61 m
CYHE 240716Z AUTO 11008KT 4SM BR FEW002 07/06 A3069 RMK SLP396
CYYT - St. John's, NL
Updated: 10-24-2017 00:05
Mostly Cloudy  
Mostly Cloudy  
   Wind: West 11.1 km/h
Wind: West 11.1 km/h
Temperature: 1°C
Wind Chill: -2°C
Dew Point: 1°C
Humidity: 100%
Barometer: 1020 hPa
Clouds: Mostly Cloudy
Visibility: 24 km
Cloud details: Mostly Cloudy 91.4 m
CYYT 240705Z 26006KT 15SM BKN003 01/01 A3012 RMK SF5 SLP208

Script developed by  Saratoga-weather.org Adapted for the template by  Weerstation Leuven